Echo Bay, Canada
Current Conditions -  °F | °C
As of 2:55 PM on Saturday 25 Oct 2014 (Local Time) from KANJ Reporting Station
Overcast Overcast  
Wind Chill: 52°   Ceiling: 5500
Heat Index: 52°   Visibility: 10mi
Dew Point: 35°   Wind: 22mph
Humidity: 53%   Direction: 300°WNW
Pressure: 29.63"   Gusts: 38mph
Location:  46.48°N, 84.07°W
Report Text: KANJ 251855Z AUTO 30019G33KT 10SM OVC055 11/02 A2963 RMK AO2 PK WND 30036/1808 SLP034 T01110017
Loading
Personal Weather Stations






























Interactive Weather Map
Tropical Storm Tracking
New forecast layout! Learn more

10-Day Weather Forecast

Advertisements
Track Severe Weather on mobile